Time;durP1;ratioP1;P1;durP2;ratioP2;P2;SDS_P1;SDS_P2;PMS_P1;PMS_P2;Temp;Humidity;BMP_temperature;BMP_pressure;BME280_temperature;BME280_humidity;BME280_pressure;Samples;Min_cycle;Max_cycle;Signal;HPM_P1;HPM_P2
2023/06/04 00:05:28;;;;;;;14.90;10.40;;;;;;;25.74;37.64;101625.41;21070945;28;20407;-62
2023/06/04 00:15:29;;;;;;;11.77;10.02;;;;;;;25.82;37.63;101638.81;21075010;28;20070;-62
2023/06/04 00:25:31;;;;;;;11.52;9.20;;;;;;;25.87;37.64;101635.09;21076992;28;20039;-61
2023/06/04 00:35:33;;;;;;;10.63;9.05;;;;;;;25.91;37.82;101634.22;21087782;28;20062;-61
2023/06/04 00:45:34;;;;;;;11.32;8.73;;;;;;;26.00;37.61;101640.00;21087525;28;20040;-63
2023/06/04 00:55:36;;;;;;;10.02;5.82;;;;;;;25.75;38.95;101647.56;21087728;28;20044;-62
2023/06/04 01:06:03;;;;;;;12.07;5.43;;;;;;;25.49;38.43;101675.00;21085032;28;20044;-63
2023/06/04 01:16:05;;;;;;;11.95;4.93;;;;;;;25.33;38.93;101676.25;21084242;28;20047;-63
2023/06/04 01:26:09;;;;;;;9.63;4.30;;;;;;;25.07;39.58;101703.63;21001170;28;20032;-63
2023/06/04 01:36:12;;;;;;;10.40;4.45;;;;;;;25.17;39.17;101709.16;21077376;28;20040;-63
2023/06/04 01:46:13;;;;;;;11.40;4.57;;;;;;;24.99;39.56;101726.63;21081624;28;20556;-64
2023/06/04 01:56:15;;;;;;;8.15;4.15;;;;;;;24.87;40.04;101728.94;21081558;28;20040;-63
2023/06/04 02:06:16;;;;;;;13.32;4.38;;;;;;;24.74;39.89;101714.47;21080440;28;20316;-63
2023/06/04 02:16:18;;;;;;;7.75;3.70;;;;;;;24.70;40.31;101738.56;21081018;28;20437;-63
2023/06/04 02:26:19;;;;;;;10.55;3.60;;;;;;;24.69;40.33;101734.06;21078593;28;20093;-62
2023/06/04 02:36:21;;;;;;;7.82;4.00;;;;;;;24.70;40.16;101735.75;21078968;28;20048;-62
2023/06/04 02:46:22;;;;;;;7.68;3.67;;;;;;;24.50;40.33;101724.63;21070671;28;20036;-62
2023/06/04 02:56:25;;;;;;;7.25;3.00;;;;;;;24.18;40.61;101723.03;21078069;28;20093;-63
2023/06/04 03:06:44;;;;;;;9.07;3.20;;;;;;;24.41;40.56;101737.53;21075626;28;20032;-63
2023/06/04 03:16:46;;;;;;;7.72;3.28;;;;;;;24.45;40.37;101730.25;21046942;28;20044;-62
2023/06/04 03:26:49;;;;;;;9.80;3.60;;;;;;;24.68;40.10;101732.38;21066886;28;20040;-63
2023/06/04 03:36:54;;;;;;;7.00;3.00;;;;;;;24.88;39.63;101741.78;21057331;28;20435;-63
2023/06/04 03:46:56;;;;;;;11.80;3.45;;;;;;;25.05;39.86;101742.25;21053504;28;20040;-61
2023/06/04 03:56:57;;;;;;;7.75;3.60;;;;;;;25.19;40.12;101748.91;21076519;28;20044;-59
2023/06/04 04:07:00;;;;;;;6.43;2.95;;;;;;;25.22;39.57;101748.34;21091102;28;20052;-62
2023/06/04 04:17:02;;;;;;;10.80;3.15;;;;;;;25.26;39.40;101737.41;21089170;28;20044;-61
2023/06/04 04:27:04;;;;;;;6.43;3.00;;;;;;;25.49;39.43;101761.03;21092986;28;20062;-62
2023/06/04 04:37:08;;;;;;;5.90;2.75;;;;;;;25.63;39.55;101750.81;21089449;28;20047;-62
2023/06/04 04:47:10;;;;;;;5.50;3.10;;;;;;;25.73;39.02;101745.13;21124747;28;20503;-61
2023/06/04 04:57:11;;;;;;;5.78;2.97;;;;;;;25.85;38.80;101744.75;21170563;28;20095;-62
2023/06/04 05:07:16;;;;;;;5.95;3.10;;;;;;;25.91;38.84;101734.31;21169359;28;20479;-63
2023/06/04 05:17:21;;;;;;;5.97;2.88;;;;;;;25.94;38.92;101742.16;21169788;28;20027;-62
2023/06/04 05:27:23;;;;;;;4.20;2.70;;;;;;;25.98;38.97;101743.22;21160925;28;20051;-63
2023/06/04 05:37:26;;;;;;;3.70;2.67;;;;;;;26.02;38.88;101767.56;21082233;28;20032;-64
2023/06/04 05:47:31;;;;;;;4.55;3.00;;;;;;;26.05;39.05;101749.31;21083596;28;20044;-64
2023/06/04 05:57:33;;;;;;;4.90;2.63;;;;;;;26.04;38.93;101756.91;21081826;28;20040;-63
2023/06/04 06:07:34;;;;;;;4.90;2.60;;;;;;;26.07;38.93;101735.81;21080942;28;20052;-64
2023/06/04 06:17:37;;;;;;;5.47;2.88;;;;;;;25.99;38.97;101722.47;21080499;28;20051;-63
2023/06/04 06:27:40;;;;;;;4.50;2.38;;;;;;;26.13;39.01;101722.59;21116996;28;20039;-62
2023/06/04 06:37:43;;;;;;;2.80;2.28;;;;;;;26.12;39.13;101716.16;21082166;28;20044;-62
2023/06/04 06:47:45;;;;;;;5.05;2.45;;;;;;;26.12;39.38;101704.94;21078435;28;20063;-62
2023/06/04 06:57:49;;;;;;;3.05;2.10;;;;;;;26.19;39.08;101705.41;21079381;28;20109;-62
2023/06/04 07:07:51;;;;;;;3.47;2.40;;;;;;;26.18;38.88;101692.50;21076897;28;20040;-63
2023/06/04 07:17:55;;;;;;;3.55;2.70;;;;;;;26.21;39.21;101691.09;21076284;28;20500;-62
2023/06/04 07:27:57;;;;;;;3.33;2.20;;;;;;;26.23;39.08;101695.25;21075802;28;20036;-63
2023/06/04 07:37:59;;;;;;;3.60;2.10;;;;;;;26.13;39.37;101664.53;21088513;28;20036;-63
2023/06/04 07:48:00;;;;;;;4.03;1.92;;;;;;;26.23;39.42;101686.84;21133288;28;20051;-63
2023/06/04 07:58:02;;;;;;;4.13;2.38;;;;;;;26.26;39.18;101680.63;21175112;27;20047;-64
2023/06/04 08:08:03;;;;;;;3.05;2.13;;;;;;;26.29;39.20;101680.00;21137342;28;20082;-62
2023/06/04 08:18:05;;;;;;;2.42;2.00;;;;;;;26.28;39.36;101672.75;21089530;28;20105;-63
2023/06/04 08:28:06;;;;;;;2.38;2.00;;;;;;;26.26;39.42;101663.81;21088552;28;20043;-63
2023/06/04 08:38:11;;;;;;;2.13;1.50;;;;;;;26.24;39.43;101674.47;21087503;28;20592;-63
2023/06/04 08:48:14;;;;;;;2.25;1.85;;;;;;;26.22;39.38;101665.53;21083146;28;20044;-63
2023/06/04 08:58:16;;;;;;;2.20;1.67;;;;;;;26.22;39.81;101671.16;21129763;28;20040;-63
2023/06/04 09:08:20;;;;;;;2.38;1.77;;;;;;;26.21;39.61;101674.25;21169594;28;20051;-64
2023/06/04 09:18:21;;;;;;;1.60;1.35;;;;;;;26.24;39.54;101668.88;21168221;28;20043;-63
2023/06/04 09:28:22;;;;;;;4.00;1.55;;;;;;;26.17;39.56;101676.81;21133820;28;20044;-65
2023/06/04 09:38:34;;;;;;;2.25;1.63;;;;;;;26.20;39.91;101695.84;21083527;28;20591;-64
2023/06/04 09:48:38;;;;;;;3.30;1.55;;;;;;;26.22;39.90;101693.59;21097640;28;20032;-63
2023/06/04 09:58:42;;;;;;;1.58;1.45;;;;;;;26.23;39.76;101695.25;21121929;28;20044;-63
2023/06/04 10:08:46;;;;;;;1.70;1.60;;;;;;;26.24;40.14;101696.91;21080487;28;20052;-63
2023/06/04 10:18:47;;;;;;;1.58;1.30;;;;;;;26.26;39.92;101697.47;21078247;28;20416;-63
2023/06/04 10:28:50;;;;;;;2.00;1.60;;;;;;;26.26;39.65;101691.03;21078049;28;20040;-63
2023/06/04 10:38:55;;;;;;;1.80;1.60;;;;;;;26.27;39.39;101693.53;21076921;28;20051;-63
2023/06/04 10:48:57;;;;;;;1.50;1.40;;;;;;;26.27;39.38;101701.94;21103371;28;20061;-63
2023/06/04 10:58:59;;;;;;;2.25;1.52;;;;;;;26.29;39.34;101710.88;21159870;28;20066;-63
2023/06/04 11:09:05;;;;;;;1.83;1.55;;;;;;;26.28;39.59;101709.22;21082323;28;20036;-64
2023/06/04 11:19:06;;;;;;;1.63;1.30;;;;;;;26.31;39.47;101714.25;21075932;28;20548;-64
2023/06/04 11:29:11;;;;;;;1.42;1.20;;;;;;;26.31;39.31;101703.00;21075843;28;20479;-64
2023/06/04 11:39:15;;;;;;;2.47;1.52;;;;;;;26.30;39.37;101711.75;21074891;28;20052;-63
2023/06/04 11:49:17;;;;;;;1.90;1.27;;;;;;;26.28;39.40;101711.19;21075451;28;20044;-61
2023/06/04 11:59:20;;;;;;;1.83;1.60;;;;;;;26.34;39.32;101724.88;21104715;28;20048;-61
2023/06/04 12:09:22;;;;;;;2.00;1.13;;;;;;;26.20;39.13;101723.91;21115412;28;20046;-60
2023/06/04 12:19:24;;;;;;;7.03;1.15;;;;;;;26.12;39.71;101715.31;21098623;28;20074;-60
2023/06/04 12:29:31;;;;;;;3.42;0.95;;;;;;;26.17;39.98;101730.13;21087596;28;20117;-60
2023/06/04 12:39:39;;;;;;;2.40;1.10;;;;;;;26.24;40.14;101727.78;21089814;28;20097;-60
2023/06/04 12:49:40;;;;;;;3.63;1.13;;;;;;;26.21;40.37;101725.59;21158183;28;20555;-61
2023/06/04 12:59:44;;;;;;;3.65;1.27;;;;;;;26.18;39.89;101719.72;21167564;28;20444;-60
2023/06/04 13:09:46;;;;;;;3.70;1.48;;;;;;;26.21;40.23;101717.19;21100919;28;20114;-61
2023/06/04 13:19:47;;;;;;;6.22;1.45;;;;;;;26.10;39.46;101701.56;21084062;28;20044;-62
2023/06/04 13:29:49;;;;;;;7.55;2.13;;;;;;;26.16;37.03;101689.19;21090754;28;20371;-61
2023/06/04 13:39:50;;;;;;;5.88;2.13;;;;;;;26.27;35.40;101679.50;21105651;28;20093;-62
2023/06/04 13:49:51;;;;;;;4.80;2.08;;;;;;;26.19;34.82;101649.28;21129783;28;20036;-61
2023/06/04 13:59:53;;;;;;;2.60;1.80;;;;;;;26.24;36.75;101645.59;21077832;28;20564;-61
2023/06/04 14:09:54;;;;;;;5.43;2.08;;;;;;;26.21;37.62;101624.59;21079255;28;20036;-61
2023/06/04 14:19:56;;;;;;;5.72;2.65;;;;;;;26.19;36.99;101610.03;21085761;28;20514;-62
2023/06/04 14:29:57;;;;;;;3.28;1.80;;;;;;;26.14;37.49;101595.22;21079599;28;20112;-61
2023/06/04 14:39:59;;;;;;;3.17;2.50;;;;;;;26.26;37.51;101599.28;21079355;28;20117;-61
2023/06/04 14:50:00;;;;;;;3.00;2.17;;;;;;;26.28;37.29;101584.94;21078450;28;20403;-61
2023/06/04 15:00:02;;;;;;;2.92;2.20;;;;;;;26.22;37.61;101558.09;21077521;28;20048;-61
2023/06/04 15:10:06;;;;;;;2.92;2.00;;;;;;;26.30;37.81;101547.03;21077549;28;20093;-61
2023/06/04 15:20:08;;;;;;;4.28;2.42;;;;;;;26.31;37.48;101529.06;21075712;28;20479;-61
2023/06/04 15:30:09;;;;;;;5.13;2.28;;;;;;;26.33;37.30;101532.38;21076362;28;20043;-62
2023/06/04 15:40:11;;;;;;;4.88;2.50;;;;;;;26.31;37.41;101514.19;21076207;28;20047;-62
2023/06/04 15:50:12;;;;;;;4.07;2.60;;;;;;;26.21;37.64;101489.94;21075718;28;20028;-60
2023/06/04 16:00:14;;;;;;;3.80;2.50;;;;;;;26.30;37.91;101467.66;21088878;28;20048;-60
2023/06/04 16:10:15;;;;;;;3.58;2.65;;;;;;;26.29;37.68;101446.31;21090283;28;20070;-61
2023/06/04 16:20:21;;;;;;;4.13;2.50;;;;;;;26.35;37.49;101431.09;21089948;28;20044;-61
2023/06/04 16:30:23;;;;;;;2.92;2.55;;;;;;;26.29;37.63;101418.25;21088887;28;20036;-61
2023/06/04 16:40:24;;;;;;;3.38;2.70;;;;;;;26.38;37.71;101413.63;21088382;28;20476;-60
2023/06/04 16:50:28;;;;;;;2.83;2.50;;;;;;;26.38;37.27;101395.94;21088231;28;20449;-61
2023/06/04 17:00:32;;;;;;;3.13;2.72;;;;;;;26.36;37.82;101374.66;21087397;28;20044;-61
2023/06/04 17:10:34;;;;;;;4.45;3.35;;;;;;;26.38;37.59;101349.06;21085210;28;20379;-61
2023/06/04 17:20:35;;;;;;;3.17;2.88;;;;;;;26.39;37.69;101336.75;21085095;28;20036;-61
2023/06/04 17:30:39;;;;;;;3.08;2.78;;;;;;;26.36;37.29;101315.72;21083843;28;20383;-61
2023/06/04 17:40:41;;;;;;;2.75;2.40;;;;;;;26.43;37.87;101312.53;21083338;28;20101;-61
2023/06/04 17:50:45;;;;;;;3.25;2.83;;;;;;;26.43;37.50;101294.84;21083212;28;20036;-61
2023/06/04 18:00:46;;;;;;;3.25;2.95;;;;;;;26.43;37.63;101286.41;21082116;28;20036;-61
2023/06/04 18:10:50;;;;;;;3.10;2.75;;;;;;;26.46;37.69;101283.03;21081560;28;20048;-61
2023/06/04 18:20:52;;;;;;;3.63;3.03;;;;;;;26.46;37.52;101267.03;21080669;28;20090;-61
2023/06/04 18:30:53;;;;;;;3.53;3.00;;;;;;;26.50;37.50;101270.06;21080265;28;20044;-61
2023/06/04 18:40:57;;;;;;;3.53;3.08;;;;;;;26.48;37.60;101261.94;21079490;28;20046;-61
2023/06/04 18:50:58;;;;;;;3.85;3.20;;;;;;;26.47;37.75;101251.84;21078878;28;20486;-62
2023/06/04 19:00:59;;;;;;;3.25;2.95;;;;;;;26.51;37.60;101252.88;21077448;28;20040;-62
2023/06/04 19:11:01;;;;;;;3.08;2.78;;;;;;;26.55;37.79;101241.88;21076928;28;20044;-60
2023/06/04 19:21:02;;;;;;;4.07;3.30;;;;;;;26.56;37.57;101238.75;21077101;28;20479;-62
2023/06/04 19:31:04;;;;;;;3.35;3.05;;;;;;;26.52;37.63;101236.88;21084338;28;20040;-62
2023/06/04 19:41:05;;;;;;;3.55;3.22;;;;;;;26.53;37.57;101208.53;21093111;28;20449;-61
2023/06/04 19:51:20;;;;;;;3.15;2.83;;;;;;;26.59;37.94;101212.03;21092348;28;20035;-61
2023/06/04 20:01:21;;;;;;;3.25;2.95;;;;;;;26.58;37.73;101201.97;21090729;28;20089;-61
2023/06/04 20:11:23;;;;;;;3.42;3.05;;;;;;;26.59;37.61;101203.63;21090823;28;20056;-62
2023/06/04 20:21:24;;;;;;;3.30;3.00;;;;;;;26.55;37.60;101177.31;21089577;28;20093;-62
2023/06/04 20:31:26;;;;;;;4.22;3.53;;;;;;;26.58;37.57;101179.50;21088807;28;20048;-63
2023/06/04 20:41:30;;;;;;;3.58;3.28;;;;;;;26.58;37.35;101157.06;21088191;28;20101;-62
2023/06/04 20:51:32;;;;;;;3.83;3.47;;;;;;;26.68;36.89;101170.03;21087598;28;20051;-62
2023/06/04 21:01:33;;;;;;;4.20;3.60;;;;;;;26.66;36.35;101170.31;21086637;28;20098;-63
2023/06/04 21:11:35;;;;;;;4.00;3.60;;;;;;;26.66;36.48;101181.56;21084524;28;20113;-62
2023/06/04 21:21:36;;;;;;;4.30;3.75;;;;;;;26.60;36.72;101182.81;21086276;28;20044;-62
2023/06/04 21:31:38;;;;;;;5.28;4.43;;;;;;;26.62;35.38;101186.16;21084784;28;20475;-62
2023/06/04 21:41:42;;;;;;;6.43;4.20;;;;;;;26.65;35.98;101202.34;21083342;28;20727;-61
2023/06/04 21:51:44;;;;;;;3.63;3.30;;;;;;;26.64;36.51;101209.13;21081927;28;20082;-61
2023/06/04 22:01:47;;;;;;;5.15;3.33;;;;;;;26.65;36.55;101213.59;21082170;28;20117;-61
2023/06/04 22:11:48;;;;;;;3.65;3.25;;;;;;;26.70;36.39;101224.69;21081389;28;20036;-62
2023/06/04 22:21:49;;;;;;;3.83;3.47;;;;;;;26.64;36.89;101222.34;21080882;28;20093;-61
2023/06/04 22:31:51;;;;;;;3.92;3.53;;;;;;;26.67;36.88;101239.38;21080557;28;20352;-62
2023/06/04 22:41:52;;;;;;;4.28;3.42;;;;;;;26.69;36.77;101251.13;21079124;28;20369;-61
2023/06/04 22:51:56;;;;;;;3.63;3.08;;;;;;;26.69;37.05;101275.56;21079132;28;20544;-62
2023/06/04 23:01:58;;;;;;;3.97;3.33;;;;;;;26.68;37.18;101294.38;21076941;28;20044;-61
2023/06/04 23:11:59;;;;;;;4.15;3.45;;;;;;;26.68;37.01;101305.59;21076906;28;20394;-62
2023/06/04 23:22:03;;;;;;;3.72;2.80;;;;;;;26.69;36.96;101329.72;21077425;28;20441;-64
2023/06/04 23:32:05;;;;;;;3.47;2.70;;;;;;;26.63;36.91;101339.41;21076810;28;20548;-62
2023/06/04 23:42:09;;;;;;;3.22;2.92;;;;;;;26.69;37.12;101348.53;21076064;28;20032;-61
2023/06/04 23:52:17;;;;;;;3.05;2.72;;;;;;;26.64;36.90;101346.66;21075851;28;20445;-62
